Αναφορές METAR Αεροδρομίων

 

LGTS - THESSALONIKI - GREECE
Ενημερώθηκε: 17/09/2019 00:50
Αίθριος
Αίθριος
 Ανεμος από Α
Ανεμος: Α 9 km/h
Θερμοκρασία: 19°C
Σημείο Δρόσου: 15°C
Υγρασία: 78%
Βαρόμετρο: 1016 hPa
Περίληψη: Αίθριος
Visibility: greater than 10 km
2019/09/16 21:50 LGTS 162150Z 09005KT CAVOK 19/15 Q1016 NOSIG
LGLR - LARTISA - GREECE
Ενημερώθηκε: 17/09/2019 00:50
Αίθριος
Αίθριος
 Ανεμος από calm
Ανεμος: Απνοια
Θερμοκρασία: 20°C
Σημείο Δρόσου: 14°C
Υγρασία: 69%
Βαρόμετρο: 1015 hPa
Περίληψη: Αίθριος
Visibility: greater than 10 km
2019/09/16 21:50 LGLR 162150Z 00000KT CAVOK 20/14 Q1015 BLU
 
LGKZ - KOZANI - GREECE
Ενημερώθηκε: 17/09/2019 00:50

 Ανεμος από Β
Ανεμος: Β 11 km/h
Θερμοκρασία: 17°C
Σημείο Δρόσου: 9°C
Υγρασία: 59%
Βαρόμετρο: 1018 hPa
2019/09/16 21:50 LGKZ 162150Z AUTO 35006KT //// // ////// 17/09 Q1018 RE//
LGKV - KAVALA - GREECE
Ενημερώθηκε: 16/09/2019 23:20
NOT Current
Αίθριος
Αίθριος
 Ανεμος από varies
Ανεμος: varies 6 km/h
Θερμοκρασία: 20°C
Σημείο Δρόσου: 17°C
Υγρασία: 83%
Βαρόμετρο: 1015 hPa
Περίληψη: Αίθριος
Visibility: greater than 10 km
2019/09/16 20:20 LGKV 162020Z VRB03KT CAVOK 20/17 Q1015
 
LGIO - IOANNINA - GREECE
Ενημερώθηκε: 17/09/2019 00:50

 Ανεμος από varies
Ανεμος: varies 0 km/h
Θερμοκρασία: 15°C
Σημείο Δρόσου: 10°C
Υγρασία: 72%
Βαρόμετρο: 1018 hPa
2019/09/16 21:50 LGIO 162150Z AUTO /////KT //// // ////// 15/10 Q1018 RE//
LGBL - BOLOS - GREECE
Ενημερώθηκε: 17/09/2019 00:50
Αίθριος
Αίθριος
 Ανεμος από calm
Ανεμος: Απνοια
Θερμοκρασία: 18°C
Σημείο Δρόσου: 13°C
Υγρασία: 73%
Βαρόμετρο: 1015 hPa
Περίληψη: Αίθριος
Visibility: greater than 10 km
2019/09/16 21:50 LGBL 162150Z 00000KT CAVOK 18/13 Q1015
 
LGMT - MITILINI - GREECE
Ενημερώθηκε: 16/09/2019 22:50
NOT Current
Αίθριος
Αίθριος
 Ανεμος από ΔΒΔ
Ανεμος: ΔΒΔ 15 km/h
Θερμοκρασία: 23°C
Σημείο Δρόσου: 10°C
Υγρασία: 44%
Βαρόμετρο: 1015 hPa
Περίληψη: Αίθριος
Visibility: greater than 10 km
2019/09/16 19:50 LGMT 161950Z 29008KT CAVOK 23/10 Q1015
LGAV - ATHENS - GREECE
Ενημερώθηκε: 17/09/2019 00:50
Αίθριος
Αίθριος
 Ανεμος από calm
Ανεμος: Απνοια
Θερμοκρασία: 20°C
Σημείο Δρόσου: 12°C
Υγρασία: 60%
Βαρόμετρο: 1016 hPa
Περίληψη: Αίθριος
Visibility: greater than 10 km
2019/09/16 21:50 LGAV 162150Z 00000KT CAVOK 20/12 Q1016 NOSIG
 
LGRP - RODOS - GREECE
Ενημερώθηκε: 17/09/2019 00:50
Αίθριος
Αίθριος
 Ανεμος από ΝΔ
Ανεμος: ΝΔ 17 km/h
Θερμοκρασία: 23°C
Σημείο Δρόσου: 18°C
Υγρασία: 74%
Βαρόμετρο: 1011 hPa
Περίληψη: Αίθριος
Visibility: greater than 10 km
2019/09/16 21:50 LGRP 162150Z 22009KT CAVOK 23/18 Q1011 NOSIG
LGIR - HRAKLIO/KRITI - GREECE
Ενημερώθηκε: 17/09/2019 00:50
Αίθριος
Αίθριος
 Ανεμος από ΒΔ
Ανεμος: ΒΔ 13 km/h
Θερμοκρασία: 22°C
Σημείο Δρόσου: 13°C
Υγρασία: 57%
Βαρόμετρο: 1015 hPa
Περίληψη: Αίθριος
Visibility: greater than 10 km
2019/09/16 21:50 LGIR 162150Z 31007KT CAVOK 22/13 Q1015 NOSIG
 
LGMK - MIKONOS - GREECE
Ενημερώθηκε: 17/09/2019 00:50
Αίθριος
Αίθριος
 Ανεμος από ΒΒΔ
Ανεμος: ΒΒΔ 22 km/h
Θερμοκρασία: 20°C
Σημείο Δρόσου: 13°C
Υγρασία: 64%
Βαρόμετρο: 1014 hPa
Περίληψη: Αίθριος
Visibility: greater than 10 km
2019/09/16 21:50 LGMK 162150Z 34012KT CAVOK 20/13 Q1014
LGKR - KERKIRA - GREECE
Ενημερώθηκε: 17/09/2019 00:50
Αίθριος
Αίθριος
 Ανεμος από calm
Ανεμος: Απνοια
Θερμοκρασία: 22°C
Σημείο Δρόσου: 13°C
Υγρασία: 57%
Βαρόμετρο: 1016 hPa
Περίληψη: Αίθριος
Visibility: greater than 10 km
2019/09/16 21:50 LGKR 162150Z 00000KT CAVOK 22/13 Q1016 NOSIG